Terminal Aerodrome Forecast
Issued by NWS

Home | Current Version | Previous Version | Graphics & Text | Print | Product List | Glossary On
Versions: 1 2 3 4 5 6 7 8 9 10 11 12 13 14 15 16 17 18 19
673
FTUS43 KICT 131134
TAFHUT
TAF
KHUT 131134Z 1312/1412 10008KT P6SM SCT100 BKN150
     FM131700 15011G19KT P6SM SCT050
     FM132100 16012G20KT P6SM BKN040
     FM140000 13011KT P6SM OVC030
     FM140700 16007KT P6SM BKN025
     FM141000 21006KT 6SM BR SCT007=

USA.gov is the U.S. government's official web portal to all federal, state and local government web resources and services.